sensor_id;sensor_type;location;lat;lon;timestamp;P1;P2;P0
14880;PMS7003;7533;51.278;12.588;2024-03-23T00:55:40;2.75;2.75;1.75
14880;PMS7003;7533;51.278;12.588;2024-03-23T01:00:42;3.00;3.00;2.00
14880;PMS7003;7533;51.278;12.588;2024-03-23T01:05:44;2.50;2.50;1.00
14880;PMS7003;7533;51.278;12.588;2024-03-23T01:10:54;2.00;2.00;1.00
14880;PMS7003;7533;51.278;12.588;2024-03-23T01:15:56;2.00;2.00;1.50
14880;PMS7003;7533;51.278;12.588;2024-03-23T01:20:58;4.00;2.00;1.00
14880;PMS7003;7533;51.278;12.588;2024-03-23T01:26:02;3.00;3.00;1.50
14880;PMS7003;7533;51.278;12.588;2024-03-23T01:31:04;2.50;2.50;1.00
14880;PMS7003;7533;51.278;12.588;2024-03-23T01:36:06;2.25;2.25;1.00
14880;PMS7003;7533;51.278;12.588;2024-03-23T01:41:09;2.25;2.25;1.00
14880;PMS7003;7533;51.278;12.588;2024-03-23T01:46:11;2.75;2.75;1.00
14880;PMS7003;7533;51.278;12.588;2024-03-23T01:51:13;2.25;2.25;1.50
14880;PMS7003;7533;51.278;12.588;2024-03-23T01:56:17;3.00;3.00;2.00
14880;PMS7003;7533;51.278;12.588;2024-03-23T02:01:19;2.75;2.00;1.00
14880;PMS7003;7533;51.278;12.588;2024-03-23T02:06:21;2.00;2.00;0.75
14880;PMS7003;7533;51.278;12.588;2024-03-23T02:11:25;3.50;2.50;1.50
14880;PMS7003;7533;51.278;12.588;2024-03-23T02:16:26;3.00;3.00;1.00
14880;PMS7003;7533;51.278;12.588;2024-03-23T02:21:28;2.50;2.50;1.00
14880;PMS7003;7533;51.278;12.588;2024-03-23T02:26:33;2.00;2.00;1.00
14880;PMS7003;7533;51.278;12.588;2024-03-23T02:31:35;2.00;2.00;0.50
14880;PMS7003;7533;51.278;12.588;2024-03-23T02:36:37;1.00;1.00;0.25
14880;PMS7003;7533;51.278;12.588;2024-03-23T02:41:40;2.75;2.00;1.00
14880;PMS7003;7533;51.278;12.588;2024-03-23T02:46:42;2.00;1.50;1.00
14880;PMS7003;7533;51.278;12.588;2024-03-23T02:51:44;1.50;1.50;1.00
14880;PMS7003;7533;51.278;12.588;2024-03-23T02:56:50;1.00;1.00;0.25
14880;PMS7003;7533;51.278;12.588;2024-03-23T03:01:52;2.75;2.00;1.00
14880;PMS7003;7533;51.278;12.588;2024-03-23T03:06:53;2.50;2.00;1.00
14880;PMS7003;7533;51.278;12.588;2024-03-23T03:11:57;2.00;2.00;1.00
14880;PMS7003;7533;51.278;12.588;2024-03-23T03:16:59;3.00;1.00;1.00
14880;PMS7003;7533;51.278;12.588;2024-03-23T03:22:01;2.00;1.75;0.50
14880;PMS7003;7533;51.278;12.588;2024-03-23T03:27:06;2.00;2.00;1.00
14880;PMS7003;7533;51.278;12.588;2024-03-23T03:32:08;1.50;1.50;1.00
14880;PMS7003;7533;51.278;12.588;2024-03-23T03:37:10;2.50;2.50;1.00
14880;PMS7003;7533;51.278;12.588;2024-03-23T03:42:13;3.00;3.00;1.00
14880;PMS7003;7533;51.278;12.588;2024-03-23T03:47:16;2.25;2.25;1.00
14880;PMS7003;7533;51.278;12.588;2024-03-23T03:52:18;2.00;2.00;1.00
14880;PMS7003;7533;51.278;12.588;2024-03-23T03:57:21;1.75;1.75;0.75
14880;PMS7003;7533;51.278;12.588;2024-03-23T04:02:23;1.00;1.00;0.75
14880;PMS7003;7533;51.278;12.588;2024-03-23T04:07:24;2.00;1.50;0.00
14880;PMS7003;7533;51.278;12.588;2024-03-23T04:12:28;2.25;1.75;0.75
14880;PMS7003;7533;51.278;12.588;2024-03-23T04:17:29;1.00;1.00;0.00
14880;PMS7003;7533;51.278;12.588;2024-03-23T04:22:33;1.75;1.75;1.00
14880;PMS7003;7533;51.278;12.588;2024-03-23T04:27:36;1.50;1.50;0.50
14880;PMS7003;7533;51.278;12.588;2024-03-23T04:32:38;3.75;2.00;1.00
14880;PMS7003;7533;51.278;12.588;2024-03-23T04:37:42;1.00;1.00;1.00
14880;PMS7003;7533;51.278;12.588;2024-03-23T04:42:45;0.25;0.25;0.00
14880;PMS7003;7533;51.278;12.588;2024-03-23T04:47:47;0.75;0.75;0.00
14880;PMS7003;7533;51.278;12.588;2024-03-23T04:52:49;3.00;1.00;1.00
14880;PMS7003;7533;51.278;12.588;2024-03-23T04:57:52;1.75;1.00;0.00
14880;PMS7003;7533;51.278;12.588;2024-03-23T05:02:54;1.25;1.25;0.00
14880;PMS7003;7533;51.278;12.588;2024-03-23T05:07:56;1.00;1.00;1.00
14880;PMS7003;7533;51.278;12.588;2024-03-23T05:12:59;1.00;1.00;0.00
14880;PMS7003;7533;51.278;12.588;2024-03-23T05:18:02;1.00;1.00;0.00
14880;PMS7003;7533;51.278;12.588;2024-03-23T05:23:05;1.00;1.00;0.75
14880;PMS7003;7533;51.278;12.588;2024-03-23T05:28:08;3.00;2.00;1.00
14880;PMS7003;7533;51.278;12.588;2024-03-23T05:33:10;1.50;1.50;1.00
14880;PMS7003;7533;51.278;12.588;2024-03-23T05:38:12;1.50;1.00;0.00
14880;PMS7003;7533;51.278;12.588;2024-03-23T05:43:16;1.00;1.00;0.00
14880;PMS7003;7533;51.278;12.588;2024-03-23T05:48:18;1.00;1.00;0.00
14880;PMS7003;7533;51.278;12.588;2024-03-23T05:53:20;1.00;1.00;0.00
14880;PMS7003;7533;51.278;12.588;2024-03-23T05:58:23;2.00;2.00;0.25
14880;PMS7003;7533;51.278;12.588;2024-03-23T06:03:25;1.25;1.00;0.00
14880;PMS7003;7533;51.278;12.588;2024-03-23T06:08:27;1.25;1.25;0.00
14880;PMS7003;7533;51.278;12.588;2024-03-23T06:13:30;1.50;1.50;0.00
14880;PMS7003;7533;51.278;12.588;2024-03-23T06:18:32;1.25;1.25;0.00
14880;PMS7003;7533;51.278;12.588;2024-03-23T06:23:34;1.50;1.50;0.00
14880;PMS7003;7533;51.278;12.588;2024-03-23T06:28:37;1.00;1.00;0.75
14880;PMS7003;7533;51.278;12.588;2024-03-23T06:33:39;0.00;0.00;0.00
14880;PMS7003;7533;51.278;12.588;2024-03-23T06:38:42;1.00;1.00;0.00
14880;PMS7003;7533;51.278;12.588;2024-03-23T06:43:45;1.50;1.50;0.00
14880;PMS7003;7533;51.278;12.588;2024-03-23T06:48:47;1.50;1.00;0.00
14880;PMS7003;7533;51.278;12.588;2024-03-23T06:53:49;1.25;1.25;0.00
14880;PMS7003;7533;51.278;12.588;2024-03-23T06:58:52;1.25;1.25;0.50
14880;PMS7003;7533;51.278;12.588;2024-03-23T07:03:54;2.50;2.50;1.00
14880;PMS7003;7533;51.278;12.588;2024-03-23T07:08:56;1.25;0.75;0.50
14880;PMS7003;7533;51.278;12.588;2024-03-23T07:14:00;1.00;1.00;0.00
14880;PMS7003;7533;51.278;12.588;2024-03-23T07:19:03;1.00;1.00;0.00
14880;PMS7003;7533;51.278;12.588;2024-03-23T07:24:05;1.25;1.25;0.00
14880;PMS7003;7533;51.278;12.588;2024-03-23T07:29:08;2.00;1.00;0.00
14880;PMS7003;7533;51.278;12.588;2024-03-23T07:34:10;0.50;0.50;0.00
14880;PMS7003;7533;51.278;12.588;2024-03-23T07:39:12;2.00;2.00;0.50
14880;PMS7003;7533;51.278;12.588;2024-03-23T07:44:16;1.50;1.50;0.50
14880;PMS7003;7533;51.278;12.588;2024-03-23T07:49:17;1.00;0.50;0.00
14880;PMS7003;7533;51.278;12.588;2024-03-23T07:54:20;2.50;1.50;1.00
14880;PMS7003;7533;51.278;12.588;2024-03-23T07:59:23;5.50;4.00;2.00
14880;PMS7003;7533;51.278;12.588;2024-03-23T08:04:26;8.75;7.25;4.50
14880;PMS7003;7533;51.278;12.588;2024-03-23T08:09:28;4.50;4.25;2.75
14880;PMS7003;7533;51.278;12.588;2024-03-23T08:14:32;4.25;4.25;2.25
14880;PMS7003;7533;51.278;12.588;2024-03-23T08:19:34;5.75;5.00;2.00
14880;PMS7003;7533;51.278;12.588;2024-03-23T08:24:35;2.75;2.25;1.00
14880;PMS7003;7533;51.278;12.588;2024-03-23T08:29:38;3.25;3.25;2.00
14880;PMS7003;7533;51.278;12.588;2024-03-23T08:34:40;3.00;2.75;1.75
14880;PMS7003;7533;51.278;12.588;2024-03-23T08:39:43;2.75;2.75;1.00
14880;PMS7003;7533;51.278;12.588;2024-03-23T08:44:47;2.00;2.00;1.00
14880;PMS7003;7533;51.278;12.588;2024-03-23T08:49:49;2.75;2.50;1.00
14880;PMS7003;7533;51.278;12.588;2024-03-23T08:54:52;2.00;2.00;1.00
14880;PMS7003;7533;51.278;12.588;2024-03-23T08:59:55;1.00;1.00;1.00
14880;PMS7003;7533;51.278;12.588;2024-03-23T09:04:57;1.50;1.50;1.00
14880;PMS7003;7533;51.278;12.588;2024-03-23T09:10:04;2.50;1.00;0.00
14880;PMS7003;7533;51.278;12.588;2024-03-23T09:15:08;1.50;1.50;0.50
14880;PMS7003;7533;51.278;12.588;2024-03-23T09:20:11;1.00;1.00;0.00
14880;PMS7003;7533;51.278;12.588;2024-03-23T09:25:13;2.75;1.00;0.00
14880;PMS7003;7533;51.278;12.588;2024-03-23T09:30:16;1.00;1.00;0.00
14880;PMS7003;7533;51.278;12.588;2024-03-23T09:35:20;1.00;1.00;0.00
14880;PMS7003;7533;51.278;12.588;2024-03-23T09:40:22;2.67;1.67;0.00
14880;PMS7003;7533;51.278;12.588;2024-03-23T09:45:27;1.00;1.00;0.00
14880;PMS7003;7533;51.278;12.588;2024-03-23T09:50:30;1.00;1.00;0.00
14880;PMS7003;7533;51.278;12.588;2024-03-23T09:55:33;0.75;0.75;0.00
14880;PMS7003;7533;51.278;12.588;2024-03-23T10:00:37;2.00;1.00;0.00
14880;PMS7003;7533;51.278;12.588;2024-03-23T10:05:39;1.50;1.00;0.00
14880;PMS7003;7533;51.278;12.588;2024-03-23T10:10:42;1.00;1.00;0.00
14880;PMS7003;7533;51.278;12.588;2024-03-23T10:15:45;1.25;1.25;0.00
14880;PMS7003;7533;51.278;12.588;2024-03-23T10:20:50;1.00;1.00;0.00
14880;PMS7003;7533;51.278;12.588;2024-03-23T10:25:53;2.25;1.25;0.00
14880;PMS7003;7533;51.278;12.588;2024-03-23T10:30:56;1.00;1.00;0.00
14880;PMS7003;7533;51.278;12.588;2024-03-23T10:35:58;0.75;0.25;0.00
14880;PMS7003;7533;51.278;12.588;2024-03-23T10:41:00;1.00;1.00;0.00
14880;PMS7003;7533;51.278;12.588;2024-03-23T10:46:05;1.00;1.00;0.00
14880;PMS7003;7533;51.278;12.588;2024-03-23T10:51:07;3.00;0.50;0.00
14880;PMS7003;7533;51.278;12.588;2024-03-23T10:56:10;0.50;0.50;0.00
14880;PMS7003;7533;51.278;12.588;2024-03-23T11:01:15;2.25;1.00;0.00
14880;PMS7003;7533;51.278;12.588;2024-03-23T11:06:33;0.50;0.50;0.00
14880;PMS7003;7533;51.278;12.588;2024-03-23T11:11:36;1.00;1.00;0.00
14880;PMS7003;7533;51.278;12.588;2024-03-23T11:16:39;1.75;0.50;0.00
14880;PMS7003;7533;51.278;12.588;2024-03-23T11:21:53;0.50;0.00;0.00
14880;PMS7003;7533;51.278;12.588;2024-03-23T11:26:56;1.00;1.00;0.50
14880;PMS7003;7533;51.278;12.588;2024-03-23T11:32:02;1.00;1.00;0.00
14880;PMS7003;7533;51.278;12.588;2024-03-23T11:37:04;2.75;1.50;0.75
14880;PMS7003;7533;51.278;12.588;2024-03-23T11:42:07;2.75;1.75;0.50
14880;PMS7003;7533;51.278;12.588;2024-03-23T11:47:11;0.00;0.00;0.00
14880;PMS7003;7533;51.278;12.588;2024-03-23T11:52:13;1.00;1.00;0.50
14880;PMS7003;7533;51.278;12.588;2024-03-23T11:57:18;1.75;1.75;1.00
14880;PMS7003;7533;51.278;12.588;2024-03-23T12:02:21;2.50;2.00;1.00
14880;PMS7003;7533;51.278;12.588;2024-03-23T12:07:23;1.50;1.00;0.00
14880;PMS7003;7533;51.278;12.588;2024-03-23T12:12:25;1.00;1.00;1.00
14880;PMS7003;7533;51.278;12.588;2024-03-23T12:17:29;3.25;2.00;1.00
14880;PMS7003;7533;51.278;12.588;2024-03-23T12:22:30;1.00;1.00;0.00
14880;PMS7003;7533;51.278;12.588;2024-03-23T12:27:32;1.25;1.00;0.00
14880;PMS7003;7533;51.278;12.588;2024-03-23T12:32:36;1.50;1.00;1.00
14880;PMS7003;7533;51.278;12.588;2024-03-23T12:37:38;0.25;0.25;0.00
14880;PMS7003;7533;51.278;12.588;2024-03-23T12:42:40;0.25;0.25;0.00
14880;PMS7003;7533;51.278;12.588;2024-03-23T12:47:43;1.25;1.25;1.00
14880;PMS7003;7533;51.278;12.588;2024-03-23T12:52:45;1.00;1.00;0.00
14880;PMS7003;7533;51.278;12.588;2024-03-23T12:57:47;0.75;0.75;0.00
14880;PMS7003;7533;51.278;12.588;2024-03-23T13:02:51;0.00;0.00;0.00
14880;PMS7003;7533;51.278;12.588;2024-03-23T13:07:52;0.50;0.50;0.00
14880;PMS7003;7533;51.278;12.588;2024-03-23T13:12:55;2.50;1.50;0.00
14880;PMS7003;7533;51.278;12.588;2024-03-23T13:17:58;0.00;0.00;0.00
14880;PMS7003;7533;51.278;12.588;2024-03-23T13:23:00;0.50;0.50;0.00
14880;PMS7003;7533;51.278;12.588;2024-03-23T13:28:03;1.00;1.00;0.00
14880;PMS7003;7533;51.278;12.588;2024-03-23T13:33:07;0.50;0.50;0.00
14880;PMS7003;7533;51.278;12.588;2024-03-23T13:38:10;2.00;0.25;0.00
14880;PMS7003;7533;51.278;12.588;2024-03-23T13:43:12;1.25;1.00;0.50
14880;PMS7003;7533;51.278;12.588;2024-03-23T13:48:16;0.00;0.00;0.00
14880;PMS7003;7533;51.278;12.588;2024-03-23T13:53:19;0.75;0.75;0.00
14880;PMS7003;7533;51.278;12.588;2024-03-23T13:58:21;0.25;0.25;0.00
14880;PMS7003;7533;51.278;12.588;2024-03-23T14:03:27;0.50;0.50;0.25
14880;PMS7003;7533;51.278;12.588;2024-03-23T14:08:30;0.00;0.00;0.00
14880;PMS7003;7533;51.278;12.588;2024-03-23T14:13:33;0.75;0.75;0.00
14880;PMS7003;7533;51.278;12.588;2024-03-23T14:18:37;1.25;0.00;0.00
14880;PMS7003;7533;51.278;12.588;2024-03-23T14:23:39;1.75;0.50;0.00
14880;PMS7003;7533;51.278;12.588;2024-03-23T14:28:41;0.75;0.00;0.00
14880;PMS7003;7533;51.278;12.588;2024-03-23T14:33:44;0.00;0.00;0.00
14880;PMS7003;7533;51.278;12.588;2024-03-23T14:38:47;2.00;1.25;0.00
14880;PMS7003;7533;51.278;12.588;2024-03-23T14:43:49;1.00;1.00;0.00
14880;PMS7003;7533;51.278;12.588;2024-03-23T14:48:55;1.25;1.25;0.00
14880;PMS7003;7533;51.278;12.588;2024-03-23T14:53:57;3.00;3.00;0.00
14880;PMS7003;7533;51.278;12.588;2024-03-23T14:58:59;1.00;1.00;0.25
14880;PMS7003;7533;51.278;12.588;2024-03-23T15:04:03;0.50;0.50;0.00
14880;PMS7003;7533;51.278;12.588;2024-03-23T15:09:05;1.00;1.00;0.00
14880;PMS7003;7533;51.278;12.588;2024-03-23T15:14:08;1.00;1.00;0.00
14880;PMS7003;7533;51.278;12.588;2024-03-23T15:19:12;1.75;1.00;0.50
14880;PMS7003;7533;51.278;12.588;2024-03-23T15:24:14;1.00;1.00;1.00
14880;PMS7003;7533;51.278;12.588;2024-03-23T15:29:16;0.75;0.00;0.00
14880;PMS7003;7533;51.278;12.588;2024-03-23T15:34:19;0.50;0.50;0.00
14880;PMS7003;7533;51.278;12.588;2024-03-23T15:39:22;0.50;0.50;0.00
14880;PMS7003;7533;51.278;12.588;2024-03-23T15:44:24;1.00;1.00;0.00
14880;PMS7003;7533;51.278;12.588;2024-03-23T15:49:27;1.00;1.00;0.00
14880;PMS7003;7533;51.278;12.588;2024-03-23T15:54:29;0.00;0.00;0.00
14880;PMS7003;7533;51.278;12.588;2024-03-23T15:59:31;1.00;0.50;0.00
14880;PMS7003;7533;51.278;12.588;2024-03-23T16:04:34;0.50;0.00;0.00
14880;PMS7003;7533;51.278;12.588;2024-03-23T16:09:36;0.00;0.00;0.00
14880;PMS7003;7533;51.278;12.588;2024-03-23T16:14:38;0.50;0.50;0.00
14880;PMS7003;7533;51.278;12.588;2024-03-23T16:19:42;1.00;1.00;0.00
14880;PMS7003;7533;51.278;12.588;2024-03-23T16:24:43;1.75;0.75;0.00
14880;PMS7003;7533;51.278;12.588;2024-03-23T16:29:45;0.00;0.00;0.00
14880;PMS7003;7533;51.278;12.588;2024-03-23T16:34:49;0.00;0.00;0.00
14880;PMS7003;7533;51.278;12.588;2024-03-23T16:39:50;1.00;1.00;0.00
14880;PMS7003;7533;51.278;12.588;2024-03-23T16:44:53;1.00;1.00;0.00
14880;PMS7003;7533;51.278;12.588;2024-03-23T16:49:56;1.00;0.25;0.00
14880;PMS7003;7533;51.278;12.588;2024-03-23T16:54:59;0.75;0.75;0.00
14880;PMS7003;7533;51.278;12.588;2024-03-23T17:00:01;0.00;0.00;0.00
14880;PMS7003;7533;51.278;12.588;2024-03-23T17:05:05;2.50;0.00;0.00
14880;PMS7003;7533;51.278;12.588;2024-03-23T17:10:08;0.00;0.00;0.00
14880;PMS7003;7533;51.278;12.588;2024-03-23T17:15:10;0.50;0.50;0.00
14880;PMS7003;7533;51.278;12.588;2024-03-23T17:20:16;1.00;1.00;0.00
14880;PMS7003;7533;51.278;12.588;2024-03-23T17:25:18;0.25;0.25;0.00
14880;PMS7003;7533;51.278;12.588;2024-03-23T17:30:20;0.00;0.00;0.00
14880;PMS7003;7533;51.278;12.588;2024-03-23T17:35:23;0.75;0.75;0.00
14880;PMS7003;7533;51.278;12.588;2024-03-23T17:40:25;2.00;1.00;0.00
14880;PMS7003;7533;51.278;12.588;2024-03-23T17:45:53;0.00;0.00;0.00
14880;PMS7003;7533;51.278;12.588;2024-03-23T17:51:03;0.25;0.25;0.00
14880;PMS7003;7533;51.278;12.588;2024-03-23T17:56:06;0.50;0.00;0.00
14880;PMS7003;7533;51.278;12.588;2024-03-23T18:01:09;0.00;0.00;0.00
14880;PMS7003;7533;51.278;12.588;2024-03-23T18:06:14;0.00;0.00;0.00
14880;PMS7003;7533;51.278;12.588;2024-03-23T18:11:15;2.00;0.00;0.00
14880;PMS7003;7533;51.278;12.588;2024-03-23T18:16:17;0.00;0.00;0.00
14880;PMS7003;7533;51.278;12.588;2024-03-23T18:21:21;0.50;0.50;0.00
14880;PMS7003;7533;51.278;12.588;2024-03-23T18:26:22;1.00;1.00;0.00
14880;PMS7003;7533;51.278;12.588;2024-03-23T18:31:25;0.00;0.00;0.00
14880;PMS7003;7533;51.278;12.588;2024-03-23T18:36:28;0.50;0.50;0.00
14880;PMS7003;7533;51.278;12.588;2024-03-23T18:41:31;0.00;0.00;0.00
14880;PMS7003;7533;51.278;12.588;2024-03-23T18:46:33;0.00;0.00;0.00
14880;PMS7003;7533;51.278;12.588;2024-03-23T18:51:36;0.00;0.00;0.00
14880;PMS7003;7533;51.278;12.588;2024-03-23T18:56:38;0.00;0.00;0.00
14880;PMS7003;7533;51.278;12.588;2024-03-23T19:01:40;0.00;0.00;0.00
14880;PMS7003;7533;51.278;12.588;2024-03-23T19:06:44;0.00;0.00;0.00
14880;PMS7003;7533;51.278;12.588;2024-03-23T19:11:45;0.50;0.50;0.00
14880;PMS7003;7533;51.278;12.588;2024-03-23T19:16:48;0.00;0.00;0.00
14880;PMS7003;7533;51.278;12.588;2024-03-23T19:21:52;0.00;0.00;0.00
14880;PMS7003;7533;51.278;12.588;2024-03-23T19:26:54;1.00;1.00;0.00
14880;PMS7003;7533;51.278;12.588;2024-03-23T19:31:56;0.00;0.00;0.00
14880;PMS7003;7533;51.278;12.588;2024-03-23T19:37:00;1.00;1.00;0.00
14880;PMS7003;7533;51.278;12.588;2024-03-23T19:42:02;0.00;0.00;0.00
14880;PMS7003;7533;51.278;12.588;2024-03-23T19:47:04;0.25;0.25;0.00
14880;PMS7003;7533;51.278;12.588;2024-03-23T19:52:07;0.00;0.00;0.00
14880;PMS7003;7533;51.278;12.588;2024-03-23T19:57:09;0.00;0.00;0.00
14880;PMS7003;7533;51.278;12.588;2024-03-23T20:02:11;0.00;0.00;0.00
14880;PMS7003;7533;51.278;12.588;2024-03-23T20:07:15;0.00;0.00;0.00
14880;PMS7003;7533;51.278;12.588;2024-03-23T20:12:17;0.00;0.00;0.00
14880;PMS7003;7533;51.278;12.588;2024-03-23T20:17:19;0.50;0.00;0.00
14880;PMS7003;7533;51.278;12.588;2024-03-23T20:22:24;0.00;0.00;0.00
14880;PMS7003;7533;51.278;12.588;2024-03-23T20:27:27;1.00;1.00;0.00
14880;PMS7003;7533;51.278;12.588;2024-03-23T20:32:28;0.00;0.00;0.00
14880;PMS7003;7533;51.278;12.588;2024-03-23T20:37:32;1.00;1.00;0.00
14880;PMS7003;7533;51.278;12.588;2024-03-23T20:42:33;0.50;0.00;0.00
14880;PMS7003;7533;51.278;12.588;2024-03-23T20:47:35;0.75;0.75;0.00
14880;PMS7003;7533;51.278;12.588;2024-03-23T20:52:40;0.50;0.00;0.00
14880;PMS7003;7533;51.278;12.588;2024-03-23T20:57:42;0.00;0.00;0.00
14880;PMS7003;7533;51.278;12.588;2024-03-23T21:02:44;0.25;0.25;0.00
14880;PMS7003;7533;51.278;12.588;2024-03-23T21:07:47;0.00;0.00;0.00
14880;PMS7003;7533;51.278;12.588;2024-03-23T21:12:49;0.00;0.00;0.00
14880;PMS7003;7533;51.278;12.588;2024-03-23T21:17:51;0.25;0.25;0.00
14880;PMS7003;7533;51.278;12.588;2024-03-23T21:22:54;0.00;0.00;0.00
14880;PMS7003;7533;51.278;12.588;2024-03-23T21:27:56;0.00;0.00;0.00
14880;PMS7003;7533;51.278;12.588;2024-03-23T21:32:58;1.00;0.00;0.00
14880;PMS7003;7533;51.278;12.588;2024-03-23T21:38:01;0.00;0.00;0.00
14880;PMS7003;7533;51.278;12.588;2024-03-23T21:43:03;0.00;0.00;0.00
14880;PMS7003;7533;51.278;12.588;2024-03-23T21:48:07;1.00;0.75;0.00
14880;PMS7003;7533;51.278;12.588;2024-03-23T21:53:10;1.00;1.00;0.00
14880;PMS7003;7533;51.278;12.588;2024-03-23T21:58:12;0.25;0.25;0.00
14880;PMS7003;7533;51.278;12.588;2024-03-23T22:03:14;0.00;0.00;0.00
14880;PMS7003;7533;51.278;12.588;2024-03-23T22:08:17;0.00;0.00;0.00
14880;PMS7003;7533;51.278;12.588;2024-03-23T22:13:19;0.00;0.00;0.00
14880;PMS7003;7533;51.278;12.588;2024-03-23T22:18:22;0.00;0.00;0.00
14880;PMS7003;7533;51.278;12.588;2024-03-23T22:23:25;0.50;0.25;0.00
14880;PMS7003;7533;51.278;12.588;2024-03-23T22:28:27;0.25;0.25;0.00
14880;PMS7003;7533;51.278;12.588;2024-03-23T22:33:30;0.25;0.25;0.00
14880;PMS7003;7533;51.278;12.588;2024-03-23T22:38:34;0.00;0.00;0.00
14880;PMS7003;7533;51.278;12.588;2024-03-23T22:43:36;0.00;0.00;0.00
14880;PMS7003;7533;51.278;12.588;2024-03-23T22:48:37;0.25;0.25;0.00
14880;PMS7003;7533;51.278;12.588;2024-03-23T22:53:41;0.75;0.00;0.00
14880;PMS7003;7533;51.278;12.588;2024-03-23T22:58:42;0.00;0.00;0.00
14880;PMS7003;7533;51.278;12.588;2024-03-23T23:03:44;1.00;1.00;0.00
14880;PMS7003;7533;51.278;12.588;2024-03-23T23:08:47;0.00;0.00;0.00
14880;PMS7003;7533;51.278;12.588;2024-03-23T23:13:49;0.00;0.00;0.00
14880;PMS7003;7533;51.278;12.588;2024-03-23T23:18:51;1.00;1.00;0.00
14880;PMS7003;7533;51.278;12.588;2024-03-23T23:23:54;0.00;0.00;0.00
14880;PMS7003;7533;51.278;12.588;2024-03-23T23:28:56;0.00;0.00;0.00
14880;PMS7003;7533;51.278;12.588;2024-03-23T23:33:58;0.00;0.00;0.00
14880;PMS7003;7533;51.278;12.588;2024-03-23T23:39:01;0.00;0.00;0.00
14880;PMS7003;7533;51.278;12.588;2024-03-23T23:44:04;0.75;0.00;0.00
14880;PMS7003;7533;51.278;12.588;2024-03-23T23:49:06;0.00;0.00;0.00
14880;PMS7003;7533;51.278;12.588;2024-03-23T23:54:10;0.00;0.00;0.00
14880;PMS7003;7533;51.278;12.588;2024-03-23T23:59:11;0.00;0.00;0.00
